createdAt,value
2023-02-02T00:01:33.928Z,18.13
2023-02-02T00:04:02.480Z,15.73
2023-02-02T00:06:33.329Z,14.57
2023-02-02T00:09:02.958Z,15.60
2023-02-02T00:11:30.873Z,15.93
2023-02-02T00:13:58.834Z,16.20
2023-02-02T00:16:48.809Z,18.43
2023-02-02T00:19:18.548Z,17.03
2023-02-02T00:21:48.161Z,16.27
2023-02-02T00:24:18.837Z,18.77
2023-02-02T00:26:49.100Z,18.83
2023-02-02T00:29:18.831Z,16.73
2023-02-02T00:31:48.854Z,17.07
2023-02-02T00:34:17.538Z,16.03
2023-02-02T00:36:50.410Z,20.20
2023-02-02T00:39:20.302Z,14.47
2023-02-02T00:41:48.968Z,16.87
2023-02-02T00:44:34.342Z,15.10
2023-02-02T00:47:02.243Z,16.07
2023-02-02T00:49:30.133Z,15.93
2023-02-02T00:52:00.257Z,15.17
2023-02-02T00:54:28.325Z,16.07
2023-02-02T00:56:56.411Z,16.23
2023-02-02T00:59:24.339Z,16.93
2023-02-02T01:01:52.375Z,19.73
2023-02-02T01:04:20.403Z,15.53
2023-02-02T01:06:48.317Z,18.77
2023-02-02T01:09:17.595Z,18.63
2023-02-02T01:11:45.522Z,16.10
2023-02-02T01:14:13.449Z,15.83
2023-02-02T01:16:41.424Z,12.80
2023-02-02T01:19:09.386Z,15.60
2023-02-02T01:21:37.650Z,11.30
2023-02-02T01:24:05.789Z,14.37
2023-02-02T01:26:35.071Z,16.73
2023-02-02T01:29:03.064Z,14.80
2023-02-02T01:31:30.989Z,14.80
2023-02-02T01:33:58.937Z,12.77
2023-02-02T01:36:26.822Z,15.40
2023-02-02T01:38:54.722Z,16.20
2023-02-02T01:41:24.699Z,12.87
2023-02-02T01:43:57.622Z,15.13
2023-02-02T01:46:28.619Z,19.30
2023-02-02T01:49:10.969Z,15.00
2023-02-02T01:51:50.310Z,15.57
2023-02-02T01:54:21.921Z,20.03
2023-02-02T01:56:55.795Z,16.77
2023-02-02T01:59:26.058Z,15.43
2023-02-02T02:01:54.910Z,19.50
2023-02-02T02:04:25.413Z,14.67
2023-02-02T02:06:54.226Z,15.00
2023-02-02T02:09:22.261Z,15.77
2023-02-02T02:11:50.164Z,15.73
2023-02-02T02:14:35.645Z,18.17
2023-02-02T02:17:18.109Z,15.67
2023-02-02T02:20:32.785Z,14.33
2023-02-02T02:23:45.548Z,15.30
2023-02-02T02:26:42.063Z,14.30
2023-02-02T02:29:39.975Z,12.30
2023-02-02T02:32:23.338Z,16.97
2023-02-02T02:34:56.153Z,17.00
2023-02-02T02:37:34.639Z,10.87
2023-02-02T02:40:09.131Z,10.60
2023-02-02T02:42:40.775Z,9.57
2023-02-02T02:45:12.456Z,9.33
2023-02-02T02:47:43.270Z,9.17
2023-02-02T02:50:12.496Z,9.10
2023-02-02T02:52:41.691Z,10.97
2023-02-02T02:55:11.796Z,13.23
2023-02-02T02:57:58.808Z,8.47
2023-02-02T03:00:48.506Z,8.50
2023-02-02T03:03:30.312Z,8.87
2023-02-02T03:06:04.158Z,10.13
2023-02-02T03:08:35.214Z,8.33
2023-02-02T03:11:05.608Z,9.97
2023-02-02T03:13:34.107Z,10.87
2023-02-02T03:16:02.543Z,10.10
2023-02-02T03:18:33.656Z,12.90
2023-02-02T03:21:01.832Z,14.67
2023-02-02T03:23:29.888Z,13.63
2023-02-02T03:25:57.837Z,17.37
2023-02-02T03:28:27.053Z,18.37
2023-02-02T03:30:56.369Z,14.33
2023-02-02T03:33:24.824Z,14.10
2023-02-02T03:35:54.118Z,17.37
2023-02-02T03:38:22.039Z,16.77
2023-02-02T03:40:49.962Z,15.90
2023-02-02T03:43:22.236Z,23.13
2023-02-02T03:45:56.057Z,14.43
2023-02-02T03:48:23.929Z,20.40
2023-02-02T03:50:53.291Z,23.17
2023-02-02T03:53:21.361Z,18.27
2023-02-02T03:55:49.329Z,22.80
2023-02-02T03:58:17.532Z,19.90
2023-02-02T04:00:45.424Z,20.73
2023-02-02T04:03:13.317Z,17.40
2023-02-02T04:05:41.181Z,17.00
2023-02-02T04:08:10.436Z,17.80
2023-02-02T04:10:39.664Z,18.27
2023-02-02T04:13:07.584Z,25.23
2023-02-02T04:15:35.463Z,19.30
2023-02-02T04:18:03.381Z,22.60
2023-02-02T04:20:31.315Z,21.17
2023-02-02T04:22:59.346Z,20.97
2023-02-02T04:25:28.608Z,15.53
2023-02-02T04:27:56.611Z,12.93
2023-02-02T04:30:24.523Z,12.20
2023-02-02T04:32:52.489Z,26.93
2023-02-02T04:35:20.596Z,22.40
2023-02-02T04:37:48.461Z,14.67
2023-02-02T04:40:16.533Z,18.23
2023-02-02T04:42:45.800Z,29.27
2023-02-02T04:45:13.796Z,18.60
2023-02-02T04:47:41.771Z,25.97
2023-02-02T04:50:10.817Z,22.07
2023-02-02T04:52:38.716Z,20.80
2023-02-02T04:55:07.132Z,24.03
2023-02-02T04:57:35.125Z,22.30
2023-02-02T05:00:04.971Z,19.70
2023-02-02T05:02:32.887Z,23.60
2023-02-02T05:05:00.876Z,17.83
2023-02-02T05:07:28.949Z,22.30
2023-02-02T05:09:56.865Z,17.80
2023-02-02T05:12:24.907Z,17.97
2023-02-02T05:14:53.055Z,20.37
2023-02-02T05:17:22.303Z,24.80
2023-02-02T05:19:50.379Z,19.23
2023-02-02T05:22:18.263Z,20.40
2023-02-02T05:24:46.634Z,20.63
2023-02-02T05:27:14.561Z,14.53
2023-02-02T05:29:42.497Z,20.77
2023-02-02T05:32:10.439Z,20.27
2023-02-02T05:34:39.707Z,18.00
2023-02-02T05:37:07.596Z,23.97
2023-02-02T05:39:35.464Z,25.70
2023-02-02T05:42:03.519Z,17.20
2023-02-02T05:44:31.569Z,18.33
2023-02-02T05:46:59.509Z,19.20
2023-02-02T05:49:27.560Z,26.00
2023-02-02T05:51:59.043Z,21.20
2023-02-02T05:54:27.004Z,22.13
2023-02-02T05:56:56.033Z,19.13
2023-02-02T05:59:25.159Z,29.13
2023-02-02T06:01:53.087Z,21.40
2023-02-02T06:04:20.995Z,29.23
2023-02-02T06:06:48.939Z,14.67
2023-02-02T06:09:18.195Z,15.03
2023-02-02T06:11:46.382Z,19.13
2023-02-02T06:14:14.410Z,18.23
2023-02-02T06:16:42.304Z,16.63
2023-02-02T06:19:10.248Z,26.43
2023-02-02T06:21:38.172Z,19.60
2023-02-02T06:24:06.772Z,22.30
2023-02-02T06:26:37.386Z,25.60
2023-02-02T06:29:05.611Z,19.83
2023-02-02T06:31:34.483Z,18.57
2023-02-02T06:34:02.569Z,28.30
2023-02-02T06:36:30.711Z,17.17
2023-02-02T06:38:58.944Z,24.70
2023-02-02T06:41:27.143Z,19.23
2023-02-02T06:43:56.436Z,21.80
2023-02-02T06:46:24.492Z,17.47
2023-02-02T06:48:52.464Z,19.67
2023-02-02T06:51:20.667Z,17.67
2023-02-02T06:53:49.307Z,21.20
2023-02-02T06:56:17.589Z,16.63
2023-02-02T06:58:45.744Z,17.53
2023-02-02T07:01:15.939Z,14.37
2023-02-02T07:03:43.950Z,11.47
2023-02-02T07:06:13.659Z,12.67
2023-02-02T07:08:41.704Z,10.40
2023-02-02T07:11:13.158Z,14.67
2023-02-02T07:13:44.534Z,13.60
2023-02-02T07:16:14.318Z,12.90
2023-02-02T07:18:43.445Z,18.90
2023-02-02T07:21:17.917Z,13.87
2023-02-02T07:23:46.142Z,12.03
2023-02-02T07:26:15.092Z,21.03
2023-02-02T07:28:43.171Z,13.80
2023-02-02T07:31:17.200Z,15.97
2023-02-02T07:33:46.364Z,13.60
2023-02-02T07:36:16.408Z,10.07
2023-02-02T07:38:44.951Z,11.43
2023-02-02T07:41:13.135Z,18.53
2023-02-02T07:43:41.492Z,15.30
2023-02-02T07:46:12.835Z,25.30
2023-02-02T07:48:42.369Z,29.07
2023-02-02T07:51:12.781Z,24.33
2023-02-02T07:53:43.918Z,31.23
2023-02-02T07:56:14.145Z,21.13
2023-02-02T07:58:43.278Z,25.20
2023-02-02T08:01:13.708Z,17.00
2023-02-02T08:03:43.934Z,16.67
2023-02-02T08:06:15.566Z,20.60
2023-02-02T08:08:43.645Z,17.90
2023-02-02T08:11:13.173Z,17.73
2023-02-02T08:13:41.708Z,23.10
2023-02-02T08:16:10.829Z,19.10
2023-02-02T08:18:39.567Z,17.30
2023-02-02T08:21:09.806Z,18.73
2023-02-02T08:23:38.220Z,11.67
2023-02-02T08:26:11.910Z,15.33
2023-02-02T08:28:40.636Z,12.17
2023-02-02T08:31:10.797Z,14.37
2023-02-02T08:33:40.026Z,10.93
2023-02-02T08:36:13.668Z,12.70
2023-02-02T08:38:42.051Z,12.23
2023-02-02T08:41:12.562Z,13.03
2023-02-02T08:43:40.972Z,10.80
2023-02-02T08:46:10.963Z,17.67
2023-02-02T08:48:39.491Z,12.73
2023-02-02T08:51:14.430Z,12.27
2023-02-02T08:53:42.519Z,11.77
2023-02-02T08:56:12.599Z,11.60
2023-02-02T08:58:40.824Z,12.23
2023-02-02T09:01:10.545Z,14.70
2023-02-02T09:03:40.219Z,9.67
2023-02-02T09:06:09.832Z,16.20
2023-02-02T09:08:39.392Z,14.67
2023-02-02T09:11:10.116Z,14.63
2023-02-02T09:13:39.458Z,13.93
2023-02-02T09:16:10.776Z,12.70
2023-02-02T09:18:38.876Z,13.90
2023-02-02T09:21:09.051Z,10.27
2023-02-02T09:23:40.104Z,16.30
2023-02-02T09:26:12.316Z,12.13
2023-02-02T09:28:41.028Z,17.63
2023-02-02T09:31:09.884Z,16.50
2023-02-02T09:33:38.481Z,17.83
2023-02-02T09:36:08.488Z,18.57
2023-02-02T09:38:37.082Z,16.20
2023-02-02T09:41:35.853Z,15.80
2023-02-02T09:44:09.858Z,26.87
2023-02-02T09:46:50.200Z,24.90
2023-02-02T09:49:23.669Z,22.30
2023-02-02T09:51:57.931Z,12.73
2023-02-02T09:54:32.355Z,13.00
2023-02-02T09:57:09.884Z,11.83
2023-02-02T09:59:42.764Z,12.40
2023-02-02T10:02:18.633Z,8.93
2023-02-02T10:04:50.027Z,8.57
2023-02-02T10:07:20.568Z,10.50
2023-02-02T10:09:54.268Z,10.50
2023-02-02T10:12:32.730Z,9.70
2023-02-02T10:15:06.491Z,10.73
2023-02-02T10:17:41.769Z,13.63
2023-02-02T10:20:23.854Z,12.80
2023-02-02T10:22:52.347Z,13.87
2023-02-02T10:25:23.662Z,13.03
2023-02-02T10:28:01.416Z,12.07
2023-02-02T10:30:40.334Z,10.00
2023-02-02T10:33:16.582Z,11.60
2023-02-02T10:35:50.993Z,13.57
2023-02-02T10:38:29.652Z,12.87
2023-02-02T10:41:04.062Z,10.50
2023-02-02T10:44:05.225Z,10.63
2023-02-02T10:46:37.854Z,14.10
2023-02-02T10:49:19.139Z,13.70
2023-02-02T10:51:55.358Z,9.67
2023-02-02T10:54:55.877Z,11.93
2023-02-02T10:57:43.677Z,14.53
2023-02-02T11:00:22.984Z,10.97
2023-02-02T11:02:52.724Z,13.73
2023-02-02T11:05:41.318Z,12.17
2023-02-02T11:08:20.886Z,12.67
2023-02-02T11:10:52.999Z,14.53
2023-02-02T11:13:29.726Z,13.07
2023-02-02T11:16:22.564Z,14.60
2023-02-02T11:18:51.002Z,14.77
2023-02-02T11:21:24.571Z,14.03
2023-02-02T11:23:58.119Z,14.03
2023-02-02T11:26:27.369Z,16.93
2023-02-02T11:28:58.337Z,17.73
2023-02-02T11:31:36.858Z,20.53
2023-02-02T11:34:15.337Z,17.73
2023-02-02T11:37:00.045Z,21.10
2023-02-02T11:39:28.485Z,19.23
2023-02-02T11:42:05.003Z,21.73
2023-02-02T11:44:35.615Z,21.47
2023-02-02T11:47:06.323Z,21.90
2023-02-02T11:49:39.975Z,23.47
2023-02-02T11:52:17.724Z,20.73
2023-02-02T11:54:49.181Z,20.07
2023-02-02T11:57:19.725Z,18.80
2023-02-02T11:59:48.851Z,18.77
2023-02-02T12:02:30.428Z,22.20
2023-02-02T12:05:15.027Z,18.63
2023-02-02T12:07:44.513Z,19.47
2023-02-02T12:10:20.386Z,17.93
2023-02-02T12:12:58.255Z,19.33
2023-02-02T12:15:33.896Z,16.80
2023-02-02T12:18:20.752Z,22.67
2023-02-02T12:20:54.699Z,17.33
2023-02-02T12:23:53.309Z,18.80
2023-02-02T12:26:26.811Z,18.00
2023-02-02T12:29:22.154Z,19.20
2023-02-02T12:32:05.819Z,17.73
2023-02-02T12:34:45.643Z,19.33
2023-02-02T12:37:27.003Z,16.70
2023-02-02T12:40:11.144Z,20.40
2023-02-02T12:42:51.164Z,15.83
2023-02-02T12:45:36.107Z,16.67
2023-02-02T12:48:14.684Z,12.97
2023-02-02T12:51:05.056Z,15.10
2023-02-02T12:53:41.153Z,12.03
2023-02-02T12:56:21.372Z,12.93
2023-02-02T12:58:59.557Z,10.57
2023-02-02T13:01:46.032Z,7.13
2023-02-02T13:04:30.263Z,7.67
2023-02-02T13:07:28.120Z,7.33
2023-02-02T13:10:05.517Z,8.37
2023-02-02T13:12:36.701Z,10.27
2023-02-02T13:15:08.853Z,10.13
2023-02-02T13:17:42.648Z,8.67
2023-02-02T13:20:21.416Z,11.03
2023-02-02T13:22:56.248Z,10.67
2023-02-02T13:25:29.649Z,7.37
2023-02-02T13:27:59.765Z,9.17
2023-02-02T13:30:34.232Z,8.63
2023-02-02T13:33:06.347Z,10.87
2023-02-02T13:35:39.357Z,10.50
2023-02-02T13:38:19.344Z,13.83
2023-02-02T13:40:48.372Z,10.90
2023-02-02T13:43:39.843Z,11.23
2023-02-02T13:46:17.511Z,15.87
2023-02-02T13:48:55.894Z,10.13
2023-02-02T13:51:45.406Z,13.10
2023-02-02T13:54:45.760Z,8.73
2023-02-02T13:57:29.092Z,11.70
2023-02-02T14:00:04.460Z,11.00
2023-02-02T14:02:40.926Z,8.53
2023-02-02T14:05:21.267Z,13.20
2023-02-02T14:07:50.203Z,9.73
2023-02-02T14:10:27.679Z,9.67
2023-02-02T14:12:56.805Z,9.30
2023-02-02T14:15:39.425Z,9.00
2023-02-02T14:18:08.185Z,8.60
2023-02-02T14:20:48.145Z,11.03
2023-02-02T14:23:53.453Z,10.90
2023-02-02T14:26:42.679Z,9.37
2023-02-02T14:29:37.058Z,13.57
2023-02-02T14:32:34.386Z,8.93
2023-02-02T14:35:40.727Z,11.53
2023-02-02T14:38:13.568Z,7.93
2023-02-02T14:40:51.687Z,8.27
2023-02-02T14:43:49.628Z,8.47
2023-02-02T14:46:32.965Z,10.17
2023-02-02T14:49:20.527Z,8.77
2023-02-02T14:51:53.091Z,6.37
2023-02-02T14:54:26.414Z,8.53
2023-02-02T14:56:58.893Z,9.03
2023-02-02T14:59:32.689Z,10.40
2023-02-02T15:02:19.501Z,9.33
2023-02-02T15:04:48.300Z,12.53
2023-02-02T15:07:38.973Z,13.90
2023-02-02T15:10:10.127Z,10.37
2023-02-02T15:12:41.636Z,8.77
2023-02-02T15:15:22.473Z,5.93
2023-02-02T15:18:01.385Z,4.77
2023-02-02T15:20:33.097Z,3.73
2023-02-02T15:23:04.721Z,4.63
2023-02-02T15:25:36.907Z,4.47
2023-02-02T15:28:14.993Z,5.33
2023-02-02T15:30:49.032Z,5.23
2023-02-02T15:33:25.604Z,5.93
2023-02-02T15:35:54.732Z,7.57
2023-02-02T15:38:25.462Z,8.80
2023-02-02T15:40:54.852Z,6.43
2023-02-02T15:43:27.915Z,12.30
2023-02-02T15:46:03.560Z,7.93
2023-02-02T15:48:34.774Z,5.87
2023-02-02T15:51:06.731Z,8.87
2023-02-02T15:53:48.176Z,8.47
2023-02-02T15:56:29.294Z,8.57
2023-02-02T15:58:59.413Z,7.63
2023-02-02T16:01:34.202Z,7.23
2023-02-02T16:04:14.929Z,9.27
2023-02-02T16:06:44.225Z,9.10
2023-02-02T16:09:23.473Z,9.10
2023-02-02T16:11:52.182Z,5.60
2023-02-02T16:14:20.784Z,6.00
2023-02-02T16:16:50.496Z,7.57
2023-02-02T16:19:21.802Z,8.20
2023-02-02T16:21:54.478Z,6.20
2023-02-02T16:24:25.274Z,7.67
2023-02-02T16:26:55.260Z,7.87
2023-02-02T16:29:23.764Z,9.47
2023-02-02T16:31:53.323Z,9.10
2023-02-02T16:34:46.686Z,9.70
2023-02-02T16:37:16.866Z,10.80
2023-02-02T16:39:45.855Z,10.17
2023-02-02T16:42:25.540Z,11.90
2023-02-02T16:44:54.345Z,7.87
2023-02-02T16:47:40.569Z,8.17
2023-02-02T16:50:31.542Z,8.43
2023-02-02T16:53:02.930Z,9.07
2023-02-02T16:55:48.865Z,8.13
2023-02-02T16:58:21.609Z,7.40
2023-02-02T17:01:12.253Z,11.77
2023-02-02T17:03:51.982Z,14.43
2023-02-02T17:06:33.178Z,8.40
2023-02-02T17:09:17.896Z,10.17
2023-02-02T17:12:01.857Z,12.90
2023-02-02T17:14:33.689Z,10.40
2023-02-02T17:17:06.964Z,10.90
2023-02-02T17:19:36.241Z,12.80
2023-02-02T17:22:06.318Z,9.30
2023-02-02T17:24:34.700Z,13.37
2023-02-02T17:27:03.357Z,11.10
2023-02-02T17:29:31.508Z,12.80
2023-02-02T17:31:59.642Z,9.80
2023-02-02T17:34:28.797Z,11.47
2023-02-02T17:36:58.192Z,9.90
2023-02-02T17:39:26.092Z,13.83
2023-02-02T17:41:54.043Z,12.00
2023-02-02T17:44:22.070Z,17.97
2023-02-02T17:46:50.169Z,15.60
2023-02-02T17:49:18.077Z,16.13
2023-02-02T17:51:46.146Z,10.60
2023-02-02T17:54:16.697Z,10.80
2023-02-02T17:56:45.123Z,11.23
2023-02-02T17:59:13.408Z,9.37
2023-02-02T18:01:42.879Z,12.00
2023-02-02T18:04:13.652Z,8.87
2023-02-02T18:06:41.896Z,9.73
2023-02-02T18:09:10.649Z,12.07
2023-02-02T18:11:42.443Z,10.77
2023-02-02T18:14:11.023Z,9.37
2023-02-02T18:16:38.919Z,7.43
2023-02-02T18:19:06.953Z,7.53
2023-02-02T18:21:34.942Z,9.33
2023-02-02T18:24:02.859Z,9.23
2023-02-02T18:26:31.718Z,11.67
2023-02-02T18:29:01.160Z,12.23
2023-02-02T18:31:29.339Z,7.27
2023-02-02T18:33:57.568Z,8.07
2023-02-02T18:36:26.124Z,8.03
2023-02-02T18:38:54.761Z,10.33
2023-02-02T18:41:23.596Z,11.03
2023-02-02T18:43:55.029Z,8.23
2023-02-02T18:46:24.452Z,11.57
2023-02-02T18:48:52.399Z,7.40
2023-02-02T18:51:22.111Z,7.97
2023-02-02T18:53:50.197Z,12.93
2023-02-02T18:56:18.600Z,9.77
2023-02-02T18:58:46.555Z,10.03
2023-02-02T19:01:16.576Z,7.93
2023-02-02T19:03:49.963Z,11.73
2023-02-02T19:06:36.866Z,7.43
2023-02-02T19:09:05.119Z,10.70
2023-02-02T19:11:39.059Z,12.50
2023-02-02T19:14:16.732Z,11.83
2023-02-02T19:16:46.481Z,14.57
2023-02-02T19:19:22.887Z,9.90
2023-02-02T19:21:54.333Z,10.30
2023-02-02T19:24:22.687Z,10.13
2023-02-02T19:26:51.470Z,10.63
2023-02-02T19:29:21.962Z,10.67
2023-02-02T19:31:53.964Z,10.60
2023-02-02T19:34:24.138Z,8.80
2023-02-02T19:36:52.497Z,9.37
2023-02-02T19:39:27.216Z,13.87
2023-02-02T19:41:59.740Z,11.03
2023-02-02T19:44:32.250Z,11.73
2023-02-02T19:47:02.854Z,7.70
2023-02-02T19:49:35.536Z,8.63
2023-02-02T19:52:05.330Z,9.17
2023-02-02T19:54:35.749Z,9.80
2023-02-02T19:57:16.037Z,9.97
2023-02-02T19:59:48.754Z,10.00
2023-02-02T20:02:42.535Z,8.60
2023-02-02T20:05:20.284Z,9.87
2023-02-02T20:07:49.365Z,12.83
2023-02-02T20:10:21.538Z,10.40
2023-02-02T20:12:50.076Z,10.97
2023-02-02T20:15:28.566Z,9.40
2023-02-02T20:17:59.080Z,10.60
2023-02-02T20:20:30.808Z,9.00
2023-02-02T20:22:59.118Z,11.67
2023-02-02T20:25:29.183Z,14.10
2023-02-02T20:27:59.053Z,14.47
2023-02-02T20:30:30.841Z,10.83
2023-02-02T20:33:01.692Z,12.77
2023-02-02T20:35:42.670Z,11.03
2023-02-02T20:38:23.524Z,12.87
2023-02-02T20:40:52.237Z,12.43
2023-02-02T20:43:20.305Z,11.67
2023-02-02T20:45:49.103Z,13.30
2023-02-02T20:48:17.170Z,13.80
2023-02-02T20:50:47.729Z,17.03
2023-02-02T20:53:23.006Z,19.13
2023-02-02T20:55:56.871Z,16.67
2023-02-02T20:58:25.264Z,14.43
2023-02-02T21:00:53.458Z,14.40
2023-02-02T21:03:21.884Z,13.23
2023-02-02T21:05:51.269Z,15.07
2023-02-02T21:08:19.325Z,12.63
2023-02-02T21:10:47.390Z,15.57
2023-02-02T21:13:15.569Z,12.97
2023-02-02T21:15:43.546Z,12.83
2023-02-02T21:18:11.486Z,16.07
2023-02-02T21:20:39.424Z,15.93
2023-02-02T21:23:10.275Z,15.03
2023-02-02T21:25:38.403Z,19.00
2023-02-02T21:28:06.436Z,16.53
2023-02-02T21:30:34.538Z,21.50
2023-02-02T21:33:02.780Z,16.67
2023-02-02T21:35:30.731Z,14.00
2023-02-02T21:38:01.679Z,15.77
2023-02-02T21:40:34.445Z,16.00
2023-02-02T21:43:12.376Z,12.00
2023-02-02T21:45:40.474Z,11.77
2023-02-02T21:48:24.101Z,15.77
2023-02-02T21:50:52.229Z,12.93
2023-02-02T21:53:22.414Z,12.80
2023-02-02T21:55:54.282Z,11.10
2023-02-02T21:58:25.892Z,12.87
2023-02-02T22:00:54.849Z,12.50
2023-02-02T22:03:35.969Z,11.57
2023-02-02T22:06:28.077Z,13.43
2023-02-02T22:09:02.111Z,12.77
2023-02-02T22:11:39.897Z,15.33
2023-02-02T22:14:19.459Z,17.30
2023-02-02T22:16:50.281Z,16.40
2023-02-02T22:19:38.968Z,17.07
2023-02-02T22:22:19.045Z,16.73
2023-02-02T22:24:53.252Z,16.33
2023-02-02T22:27:25.174Z,15.10
2023-02-02T22:29:58.188Z,17.17
2023-02-02T22:32:26.463Z,15.17
2023-02-02T22:34:54.353Z,13.80
2023-02-02T22:37:22.363Z,12.73
2023-02-02T22:39:50.251Z,13.40
2023-02-02T22:42:18.484Z,13.87
2023-02-02T22:44:48.295Z,11.93
2023-02-02T22:47:16.254Z,10.67
2023-02-02T22:49:44.160Z,14.30
2023-02-02T22:52:12.116Z,15.50
2023-02-02T22:54:40.045Z,14.10
2023-02-02T22:57:07.949Z,11.83
2023-02-02T22:59:35.804Z,12.77
2023-02-02T23:02:05.119Z,14.63
2023-02-02T23:04:33.046Z,15.63
2023-02-02T23:07:01.000Z,13.27
2023-02-02T23:09:28.903Z,13.47
2023-02-02T23:11:56.831Z,11.83
2023-02-02T23:14:24.779Z,11.70
2023-02-02T23:16:52.680Z,13.97
2023-02-02T23:19:21.991Z,14.77
2023-02-02T23:21:49.925Z,16.33
2023-02-02T23:24:17.817Z,14.33
2023-02-02T23:26:45.720Z,16.60
2023-02-02T23:29:13.602Z,16.60
2023-02-02T23:31:41.600Z,15.00
2023-02-02T23:34:09.608Z,15.90
2023-02-02T23:36:38.934Z,17.10
2023-02-02T23:39:06.922Z,18.33
2023-02-02T23:41:34.844Z,14.70
2023-02-02T23:44:02.743Z,14.57
2023-02-02T23:46:31.514Z,16.30
2023-02-02T23:49:00.687Z,13.77
2023-02-02T23:51:28.673Z,14.50
2023-02-02T23:53:58.234Z,14.07
2023-02-02T23:56:26.255Z,11.63
2023-02-02T23:58:54.298Z,11.63
